createdAt,value
2019-05-22T00:01:50.067Z,78.16
2019-05-22T00:05:58.263Z,77.96
2019-05-22T00:10:07.414Z,78.25
2019-05-22T00:14:15.093Z,78.02
2019-05-22T00:18:22.065Z,78.00
2019-05-22T00:22:30.332Z,77.92
2019-05-22T00:26:37.269Z,78.01
2019-05-22T00:30:47.577Z,77.84
2019-05-22T00:34:56.779Z,77.74
2019-05-22T00:39:05.383Z,77.94
2019-05-22T00:43:14.386Z,78.32
2019-05-22T00:47:23.775Z,78.07
2019-05-22T00:51:45.718Z,78.44
2019-05-22T00:56:01.988Z,78.43
2019-05-22T01:00:27.846Z,78.46
2019-05-22T01:04:38.009Z,78.38
2019-05-22T01:08:56.725Z,78.60
2019-05-22T01:13:04.620Z,78.54
2019-05-22T01:17:14.735Z,78.59
2019-05-22T01:21:24.726Z,78.96
2019-05-22T01:25:34.142Z,79.09
2019-05-22T01:29:41.757Z,79.00
2019-05-22T01:34:00.257Z,78.28
2019-05-22T01:38:11.064Z,78.93
2019-05-22T01:42:22.765Z,79.26
2019-05-22T01:46:34.361Z,78.88
2019-05-22T01:50:51.929Z,79.46
2019-05-22T01:54:59.890Z,79.67
2019-05-22T01:59:08.376Z,79.46
2019-05-22T02:03:17.609Z,79.50
2019-05-22T02:07:28.504Z,79.11
2019-05-22T02:11:38.136Z,79.52
2019-05-22T02:15:52.409Z,79.06
2019-05-22T02:20:00.002Z,79.30
2019-05-22T02:24:09.410Z,79.08
2019-05-22T02:28:16.553Z,79.38
2019-05-22T02:32:24.028Z,79.19
2019-05-22T02:36:32.878Z,79.25
2019-05-22T02:40:43.015Z,78.72
2019-05-22T02:44:50.316Z,79.35
2019-05-22T02:48:59.227Z,78.55
2019-05-22T02:53:11.377Z,78.31
2019-05-22T02:57:19.253Z,78.36
2019-05-22T03:01:28.139Z,78.25
2019-05-22T03:05:35.830Z,78.33
2019-05-22T03:09:46.581Z,78.31
2019-05-22T03:14:05.405Z,78.09
2019-05-22T03:18:14.127Z,78.16
2019-05-22T03:22:30.994Z,78.08
2019-05-22T03:26:48.710Z,78.44
2019-05-22T03:30:57.058Z,79.44
2019-05-22T03:35:05.041Z,78.99
2019-05-22T03:39:14.011Z,78.98
2019-05-22T03:43:24.586Z,79.23
2019-05-22T03:47:31.864Z,79.21
2019-05-22T03:51:39.149Z,79.65
2019-05-22T03:55:46.845Z,80.35
2019-05-22T03:59:54.751Z,80.49
2019-05-22T04:04:03.265Z,80.15
2019-05-22T04:08:11.098Z,80.06
2019-05-22T04:12:18.510Z,80.37
2019-05-22T04:16:26.835Z,80.49
2019-05-22T04:20:33.840Z,80.24
2019-05-22T04:24:42.175Z,80.14
2019-05-22T04:28:53.022Z,80.85
2019-05-22T04:33:00.384Z,80.44
2019-05-22T04:37:09.238Z,80.54
2019-05-22T04:41:16.637Z,80.24
2019-05-22T04:45:25.672Z,80.47
2019-05-22T04:49:34.214Z,79.99
2019-05-22T04:53:41.365Z,80.54
2019-05-22T04:57:48.484Z,80.01
2019-05-22T05:01:55.533Z,79.81
2019-05-22T05:06:06.363Z,80.52
2019-05-22T05:10:12.226Z,80.31
2019-05-22T05:14:19.037Z,80.46
2019-05-22T05:18:26.287Z,79.88
2019-05-22T05:22:45.408Z,79.58
2019-05-22T05:26:53.152Z,79.90
2019-05-22T05:30:59.956Z,80.33
2019-05-22T05:35:09.866Z,79.36
2019-05-22T05:40:21.128Z,79.77
2019-05-22T05:44:28.166Z,79.23
2019-05-22T05:48:35.895Z,79.06
2019-05-22T05:52:44.050Z,79.03
2019-05-22T05:56:51.988Z,78.38
2019-05-22T06:01:09.886Z,78.64
2019-05-22T06:05:17.751Z,76.82
2019-05-22T06:09:25.947Z,76.15
2019-05-22T06:13:35.494Z,76.29
2019-05-22T06:18:37.444Z,75.00
2019-05-22T06:23:05.525Z,75.09
2019-05-22T06:27:30.562Z,74.69
2019-05-22T06:31:51.874Z,74.41
2019-05-22T06:36:00.997Z,73.40
2019-05-22T06:40:09.867Z,72.43
2019-05-22T06:44:44.494Z,71.63
2019-05-22T06:49:13.906Z,71.11
2019-05-22T06:58:50.869Z,69.33
2019-05-22T07:02:57.779Z,68.56
2019-05-22T07:07:11.825Z,67.82
2019-05-22T07:11:19.130Z,67.10
2019-05-22T07:15:52.447Z,66.97
2019-05-22T07:19:59.852Z,67.27
2019-05-22T07:24:07.978Z,67.50
2019-05-22T07:28:20.490Z,66.67
2019-05-22T07:32:31.140Z,65.91
2019-05-22T07:36:39.738Z,67.28
2019-05-22T07:40:50.381Z,66.72
2019-05-22T07:44:57.152Z,67.08
2019-05-22T07:49:05.970Z,67.54
2019-05-22T07:53:17.677Z,67.71
2019-05-22T07:57:27.548Z,68.69
2019-05-22T08:01:35.140Z,68.85
2019-05-22T08:05:45.326Z,68.33
2019-05-22T08:09:52.819Z,68.04
2019-05-22T08:14:00.511Z,68.49
2019-05-22T08:18:08.144Z,68.75
2019-05-22T08:22:17.116Z,69.54
2019-05-22T08:26:24.832Z,69.45
2019-05-22T08:30:31.877Z,68.67
2019-05-22T08:34:40.925Z,69.23
2019-05-22T08:38:47.792Z,68.58
2019-05-22T08:42:54.928Z,68.36
2019-05-22T08:47:20.413Z,69.00
2019-05-22T08:51:29.183Z,67.24
2019-05-22T08:55:37.341Z,67.29
2019-05-22T08:59:45.534Z,67.10
2019-05-22T09:03:52.587Z,67.65
2019-05-22T09:07:59.509Z,67.10
2019-05-22T09:12:08.335Z,65.93
2019-05-22T09:16:16.554Z,65.96
2019-05-22T09:20:24.054Z,65.77
2019-05-22T09:24:32.394Z,65.20
2019-05-22T09:28:39.400Z,65.08
2019-05-22T09:32:47.651Z,66.11
2019-05-22T09:36:54.620Z,65.53
2019-05-22T09:41:02.244Z,65.37
2019-05-22T09:45:11.598Z,64.75
2019-05-22T09:49:18.506Z,64.47
2019-05-22T09:53:26.199Z,64.04
2019-05-22T09:57:33.018Z,64.97
2019-05-22T10:01:39.951Z,63.54
2019-05-22T10:05:47.341Z,63.05
2019-05-22T10:09:54.283Z,62.01
2019-05-22T10:14:01.888Z,57.70
2019-05-22T10:18:09.113Z,55.08
2019-05-22T10:22:17.276Z,53.92
2019-05-22T10:26:24.217Z,53.07
2019-05-22T10:30:31.463Z,52.52
2019-05-22T10:34:38.646Z,53.60
2019-05-22T10:38:46.548Z,52.76
2019-05-22T10:42:53.819Z,53.00
2019-05-22T10:47:00.847Z,52.60
2019-05-22T10:51:07.732Z,54.19
2019-05-22T10:55:16.923Z,52.11
2019-05-22T10:59:25.280Z,53.26
2019-05-22T11:03:33.399Z,53.62
2019-05-22T11:07:40.987Z,55.26
2019-05-22T11:11:48.035Z,55.03
2019-05-22T11:15:56.280Z,55.24
2019-05-22T11:20:03.553Z,54.24
2019-05-22T11:24:10.811Z,53.62
2019-05-22T11:28:17.618Z,54.38
2019-05-22T11:32:24.520Z,54.09
2019-05-22T11:36:34.289Z,53.58
2019-05-22T11:40:42.305Z,52.54
2019-05-22T11:44:49.089Z,51.61
2019-05-22T11:48:56.000Z,49.78
2019-05-22T11:53:02.989Z,49.51
2019-05-22T11:57:10.835Z,51.28
2019-05-22T12:01:18.232Z,50.25
2019-05-22T12:05:25.564Z,47.46
2019-05-22T12:09:33.156Z,49.00
2019-05-22T12:13:40.106Z,48.03
2019-05-22T12:17:47.387Z,47.07
2019-05-22T12:21:54.247Z,47.72
2019-05-22T12:26:01.479Z,47.44
2019-05-22T12:30:10.086Z,44.04
2019-05-22T12:34:17.009Z,44.33
2019-05-22T12:38:27.112Z,44.44
2019-05-22T12:42:33.929Z,43.11
2019-05-22T12:46:40.808Z,41.93
2019-05-22T12:50:48.069Z,42.18
2019-05-22T12:54:55.144Z,41.09
2019-05-22T12:59:02.130Z,40.54
2019-05-22T13:03:09.324Z,42.43
2019-05-22T13:07:16.558Z,41.18
2019-05-22T13:11:25.248Z,42.75
2019-05-22T13:15:35.284Z,42.35
2019-05-22T13:19:43.817Z,41.90
2019-05-22T13:23:53.492Z,41.25
2019-05-22T13:28:03.339Z,40.63
2019-05-22T13:32:12.210Z,40.20
2019-05-22T13:36:22.480Z,38.94
2019-05-22T13:40:30.403Z,40.78
2019-05-22T13:44:38.118Z,42.60
2019-05-22T13:48:45.055Z,43.46
2019-05-22T13:52:53.899Z,44.88
2019-05-22T13:57:00.889Z,41.89
2019-05-22T14:01:08.912Z,44.36
2019-05-22T14:05:17.430Z,44.61
2019-05-22T14:09:25.043Z,42.38
2019-05-22T14:13:32.013Z,42.01
2019-05-22T14:17:39.148Z,41.43
2019-05-22T14:21:51.835Z,40.66
2019-05-22T14:25:58.692Z,42.74
2019-05-22T14:30:07.733Z,41.65
2019-05-22T14:34:14.996Z,43.63
2019-05-22T14:38:22.320Z,44.48
2019-05-22T14:42:29.322Z,43.94
2019-05-22T14:46:36.414Z,43.15
2019-05-22T14:50:43.235Z,43.27
2019-05-22T14:54:50.786Z,43.83
2019-05-22T14:58:58.050Z,43.29
2019-05-22T15:03:06.730Z,43.96
2019-05-22T15:07:13.961Z,44.33
2019-05-22T15:11:21.205Z,45.00
2019-05-22T15:15:28.608Z,43.61
2019-05-22T15:19:35.424Z,42.98
2019-05-22T15:23:43.522Z,42.31
2019-05-22T15:27:51.044Z,42.49
2019-05-22T15:31:57.839Z,41.91
2019-05-22T15:36:08.106Z,42.26
2019-05-22T15:40:16.851Z,43.29
2019-05-22T15:44:25.034Z,43.37
2019-05-22T15:48:34.526Z,42.50
2019-05-22T15:52:43.201Z,43.29
2019-05-22T15:56:51.420Z,43.42
2019-05-22T16:01:00.564Z,42.74
2019-05-22T16:05:09.417Z,43.49
2019-05-22T16:09:18.036Z,44.20
2019-05-22T16:13:27.017Z,45.22
2019-05-22T16:17:35.791Z,45.44
2019-05-22T16:21:49.366Z,44.54
2019-05-22T16:25:56.567Z,45.64
2019-05-22T16:30:06.412Z,44.60
2019-05-22T16:34:16.471Z,45.71
2019-05-22T16:38:25.662Z,45.69
2019-05-22T16:42:34.983Z,46.27
2019-05-22T16:46:43.742Z,44.89
2019-05-22T16:50:52.780Z,44.80
2019-05-22T16:55:01.713Z,45.04
2019-05-22T16:59:12.672Z,46.17
2019-05-22T17:03:21.864Z,46.94
2019-05-22T17:07:32.783Z,45.90
2019-05-22T17:11:41.589Z,46.32
2019-05-22T17:15:49.301Z,47.25
2019-05-22T17:19:56.541Z,47.17
2019-05-22T17:24:08.550Z,47.14
2019-05-22T17:28:17.129Z,46.92
2019-05-22T17:32:26.569Z,47.43
2019-05-22T17:36:34.299Z,47.38
2019-05-22T17:40:42.383Z,47.61
2019-05-22T17:44:51.651Z,49.13
2019-05-22T17:49:00.515Z,47.94
2019-05-22T17:53:09.194Z,47.97
2019-05-22T17:57:17.040Z,48.92
2019-05-22T18:01:24.717Z,48.52
2019-05-22T18:05:33.564Z,48.72
2019-05-22T18:09:40.629Z,49.19
2019-05-22T18:14:04.113Z,49.53
2019-05-22T18:18:11.433Z,48.98
2019-05-22T18:22:18.504Z,48.63
2019-05-22T18:26:25.857Z,48.91
2019-05-22T18:30:35.509Z,49.80
2019-05-22T18:34:42.383Z,50.29
2019-05-22T18:38:49.386Z,50.19
2019-05-22T18:42:57.809Z,50.56
2019-05-22T18:47:06.027Z,50.50
2019-05-22T18:51:13.904Z,50.41
2019-05-22T18:55:21.518Z,50.80
2019-05-22T18:59:28.571Z,51.49
2019-05-22T19:03:36.220Z,50.67
2019-05-22T19:07:43.105Z,50.72
2019-05-22T19:11:52.454Z,51.85
2019-05-22T19:16:02.767Z,52.38
2019-05-22T19:20:10.351Z,51.98
2019-05-22T19:24:17.254Z,53.58
2019-05-22T19:28:40.462Z,53.08
2019-05-22T19:32:33.676Z,53.25
2019-05-22T19:36:40.462Z,54.44
2019-05-22T19:40:47.503Z,53.82
2019-05-22T19:45:01.024Z,54.23
2019-05-22T19:49:08.028Z,54.37
2019-05-22T19:53:19.169Z,54.80
2019-05-22T19:57:23.685Z,55.55
2019-05-22T20:01:59.173Z,55.77
2019-05-22T20:06:06.436Z,56.06
2019-05-22T20:10:14.041Z,56.32
2019-05-22T20:14:20.964Z,56.84
2019-05-22T20:18:28.232Z,57.34
2019-05-22T20:22:36.872Z,57.73
2019-05-22T20:26:43.812Z,59.24
2019-05-22T20:30:51.164Z,58.35
2019-05-22T20:34:57.993Z,58.78
2019-05-22T20:39:09.384Z,60.91
2019-05-22T20:43:16.934Z,60.20
2019-05-22T20:47:26.953Z,59.92
2019-05-22T20:51:35.088Z,60.11
2019-05-22T20:55:44.810Z,61.28
2019-05-22T20:59:52.249Z,61.17
2019-05-22T21:04:04.036Z,61.57
2019-05-22T21:08:16.136Z,61.84
2019-05-22T21:12:25.702Z,62.26
2019-05-22T21:16:33.004Z,62.50
2019-05-22T21:20:53.690Z,62.88
2019-05-22T21:24:49.850Z,61.44
2019-05-22T21:28:57.710Z,61.48
2019-05-22T21:33:05.356Z,62.10
2019-05-22T21:37:12.634Z,63.01
2019-05-22T21:41:22.056Z,63.21
2019-05-22T21:45:28.971Z,63.97
2019-05-22T21:49:38.785Z,64.47
2019-05-22T21:53:45.261Z,64.85
2019-05-22T21:57:52.392Z,64.99
2019-05-22T22:02:09.395Z,65.46
2019-05-22T22:06:16.665Z,65.76
2019-05-22T22:10:23.715Z,65.95
2019-05-22T22:14:30.800Z,66.29
2019-05-22T22:18:39.967Z,66.54
2019-05-22T22:22:49.178Z,65.87
2019-05-22T22:26:56.851Z,65.94
2019-05-22T22:31:07.401Z,66.30
2019-05-22T22:35:16.514Z,66.51
2019-05-22T22:39:25.974Z,66.83
2019-05-22T22:43:36.990Z,66.71
2019-05-22T22:47:46.108Z,65.99
2019-05-22T22:51:53.230Z,66.94
2019-05-22T22:56:00.813Z,66.52
2019-05-22T23:00:13.335Z,66.56
2019-05-22T23:04:23.974Z,66.74
2019-05-22T23:08:33.748Z,67.32
2019-05-22T23:12:43.014Z,68.35
2019-05-22T23:16:51.053Z,68.50
2019-05-22T23:20:55.495Z,70.13
2019-05-22T23:25:04.199Z,69.79
2019-05-22T23:29:12.978Z,69.34
2019-05-22T23:33:19.823Z,69.48
2019-05-22T23:37:28.060Z,69.73
2019-05-22T23:41:37.063Z,69.99
2019-05-22T23:45:43.879Z,70.32
2019-05-22T23:49:51.460Z,71.00
2019-05-22T23:54:00.447Z,72.56
2019-05-22T23:58:08.808Z,73.70
